Time;durP1;ratioP1;P1;durP2;ratioP2;P2;SDS_P1;SDS_P2;PMS_P1;PMS_P2;Temp;Humidity;BMP_temperature;BMP_pressure;BME280_temperature;BME280_humidity;BME280_pressure;Samples;Min_cycle;Max_cycle;Signal;HPM_P1;HPM_P2
2022/09/05 00:02:26;;;;;;;6.60;5.30;;;;;;;13.17;79.68;99257.48;104861;1287;25442;-69
2022/09/05 00:05:35;;;;;;;6.40;5.60;;;;;;;13.13;79.90;99258.02;104860;1287;22532;-69
2022/09/05 00:08:51;;;;;;;6.40;5.20;;;;;;;13.08;79.98;99253.11;104828;1288;24124;-70
2022/09/05 00:12:00;;;;;;;6.20;5.40;;;;;;;13.06;79.88;99252.52;104716;1288;138793;-69
2022/09/05 00:15:16;;;;;;;6.70;5.90;;;;;;;13.05;80.05;99250.81;104185;1292;24881;-69
2022/09/05 00:18:19;;;;;;;7.60;5.40;;;;;;;13.04;80.02;99256.30;103964;1293;138658;-70
2022/09/05 00:21:48;;;;;;;7.00;6.30;;;;;;;13.03;80.15;99255.23;104211;1293;24244;-70
2022/09/05 00:24:42;;;;;;;7.30;6.20;;;;;;;13.01;80.14;99252.95;103324;1298;138802;-70
2022/09/05 00:27:45;;;;;;;6.80;6.00;;;;;;;13.01;80.06;99254.44;103425;1300;22609;-70
2022/09/05 00:31:08;;;;;;;6.50;5.90;;;;;;;13.00;80.38;99252.02;103454;1298;138872;-71
2022/09/05 00:34:04;;;;;;;6.90;6.10;;;;;;;13.01;80.17;99250.38;103340;1301;24012;-70
2022/09/05 00:36:53;;;;;;;7.20;6.00;;;;;;;13.03;80.01;99252.11;103268;1301;138586;-71
2022/09/05 00:39:41;;;;;;;6.60;6.00;;;;;;;13.03;80.16;99253.11;103397;1298;22605;-70
2022/09/05 00:42:25;;;;;;;6.30;5.60;;;;;;;13.02;80.20;99251.58;101128;1298;138534;-70
2022/09/05 00:45:19;;;;;;;8.70;6.80;;;;;;;13.02;80.37;99250.57;103440;1298;22591;-71
2022/09/05 00:48:36;;;;;;;7.00;5.70;;;;;;;13.00;80.07;99251.03;103353;1298;139000;-70
2022/09/05 00:51:26;;;;;;;7.30;5.70;;;;;;;12.97;79.94;99249.55;103373;1298;29439;-70
2022/09/05 00:54:29;;;;;;;6.20;5.60;;;;;;;12.95;80.25;99247.86;103507;1298;139089;-70
2022/09/05 00:57:29;;;;;;;7.70;6.50;;;;;;;12.92;80.04;99247.63;103513;1297;24313;-70
2022/09/05 01:00:21;;;;;;;6.10;5.20;;;;;;;12.89;80.41;99243.09;103467;1297;139109;-70
2022/09/05 01:03:33;;;;;;;6.00;5.30;;;;;;;12.85;79.98;99243.49;104636;1290;22961;-70
2022/09/05 01:06:36;;;;;;;7.50;6.00;;;;;;;12.82;80.26;99246.10;104515;1289;138563;-69
2022/09/05 01:09:42;;;;;;;6.80;6.10;;;;;;;12.76;80.14;99245.70;104614;1291;24315;-70
2022/09/05 01:13:14;;;;;;;7.10;5.70;;;;;;;12.70;80.18;99245.52;105147;1284;138356;-69
2022/09/05 01:16:22;;;;;;;6.40;5.80;;;;;;;12.64;80.50;99241.95;104418;1290;22664;-70
2022/09/05 01:19:35;;;;;;;8.60;6.60;;;;;;;12.59;80.56;99244.23;104308;1290;138328;-69
2022/09/05 01:22:28;;;;;;;8.00;6.20;;;;;;;12.50;80.68;99241.31;104454;1290;23088;-69
2022/09/05 01:25:30;;;;;;;7.60;6.80;;;;;;;12.43;80.77;99238.09;104266;1290;138404;-69
2022/09/05 01:28:43;;;;;;;9.00;7.20;;;;;;;12.37;81.28;99241.43;104423;1290;22569;-70
2022/09/05 01:31:59;;;;;;;7.90;6.70;;;;;;;12.31;81.58;99242.95;104260;1290;138426;-69
2022/09/05 01:35:05;;;;;;;9.20;6.90;;;;;;;12.29;82.16;99243.86;104474;1290;24269;-70
2022/09/05 01:37:58;;;;;;;7.60;6.80;;;;;;;12.28;82.34;99242.21;104321;1289;138510;-70
2022/09/05 01:40:45;;;;;;;7.40;6.60;;;;;;;12.28;82.63;99242.70;104450;1290;25364;-70
2022/09/05 01:43:38;;;;;;;9.20;7.00;;;;;;;12.28;82.42;99243.80;104336;1289;138457;-69
2022/09/05 01:47:02;;;;;;;7.80;7.10;;;;;;;12.29;82.40;99247.05;104437;1290;22576;-69
2022/09/05 01:50:00;;;;;;;9.00;7.10;;;;;;;12.29;82.45;99252.56;104492;1289;138600;-70
2022/09/05 01:52:57;;;;;;;8.30;7.40;;;;;;;12.29;82.36;99248.96;105843;1281;22677;-70
2022/09/05 01:56:16;;;;;;;9.50;6.90;;;;;;;12.30;82.40;99250.61;105321;1281;138285;-69
2022/09/05 01:59:00;;;;;;;8.30;7.20;;;;;;;12.30;82.40;99255.48;105382;1280;22736;-70
2022/09/05 02:01:52;;;;;;;8.30;7.10;;;;;;;12.30;82.32;99257.60;105247;1280;138348;-70
2022/09/05 02:05:22;;;;;;;9.60;6.80;;;;;;;12.28;82.37;99254.98;105338;1281;22668;-70
2022/09/05 02:08:22;;;;;;;8.30;6.40;;;;;;;12.23;82.22;99258.77;104853;1287;22577;-72
2022/09/05 02:11:09;;;;;;;9.50;6.80;;;;;;;12.16;81.85;99261.80;104657;1287;25474;-70
2022/09/05 02:14:01;;;;;;;7.70;6.90;;;;;;;12.10;82.40;99258.10;104780;1287;138226;-70
2022/09/05 02:16:47;;;;;;;9.80;7.00;;;;;;;12.07;82.50;99257.86;104795;1287;22733;-70
2022/09/05 02:19:44;;;;;;;7.30;6.20;;;;;;;12.01;82.38;99255.64;104554;1288;138637;-70
2022/09/05 02:22:40;;;;;;;9.80;7.00;;;;;;;11.95;82.71;99256.66;104657;1287;22787;-69
2022/09/05 02:25:43;;;;;;;9.60;7.30;;;;;;;11.95;83.15;99258.50;104527;1289;139289;-69
2022/09/05 02:28:56;;;;;;;12.40;7.30;;;;;;;11.96;83.30;99260.89;104713;1287;22623;-69
2022/09/05 02:31:51;;;;;;;10.90;7.10;;;;;;;11.96;83.23;99261.75;104734;1287;138742;-69
2022/09/05 02:34:41;;;;;;;7.40;6.70;;;;;;;11.95;83.18;99262.33;104816;1286;29251;-69
2022/09/05 02:37:50;;;;;;;8.40;7.60;;;;;;;11.91;82.94;99270.23;104691;1287;138985;-69
2022/09/05 02:40:34;;;;;;;7.40;6.40;;;;;;;11.84;82.86;99266.38;104833;1287;24421;-71
2022/09/05 02:43:21;;;;;;;7.70;6.60;;;;;;;11.77;83.36;99267.23;104693;1287;138957;-71
2022/09/05 02:46:32;;;;;;;8.60;6.80;;;;;;;11.74;83.41;99265.31;105252;1281;24230;-71
2022/09/05 02:49:43;;;;;;;11.10;7.20;;;;;;;11.71;83.61;99264.46;104399;1290;138498;-69
2022/09/05 02:52:31;;;;;;;9.10;7.70;;;;;;;11.69;83.97;99267.17;104532;1289;22680;-70
2022/09/05 02:55:36;;;;;;;8.40;7.30;;;;;;;11.72;84.11;99272.42;104476;1289;138793;-69
2022/09/05 02:59:00;;;;;;;8.80;7.70;;;;;;;11.74;84.49;99272.66;104644;1288;22737;-69
2022/09/05 03:02:02;;;;;;;12.20;7.90;;;;;;;11.77;84.31;99267.83;104507;1289;138455;-69
2022/09/05 03:04:50;;;;;;;8.10;7.30;;;;;;;11.81;84.46;99267.59;104623;1287;24175;-69
2022/09/05 03:07:46;;;;;;;9.90;7.30;;;;;;;11.82;84.50;99263.91;104429;1289;138646;-69
2022/09/05 03:11:10;;;;;;;10.40;7.70;;;;;;;11.83;84.50;99259.70;104658;1287;22578;-69
2022/09/05 03:14:17;;;;;;;8.70;7.30;;;;;;;11.85;84.51;99263.51;104541;1289;138938;-69
2022/09/05 03:17:14;;;;;;;10.60;7.70;;;;;;;11.86;84.22;99265.27;104664;1289;22724;-69
2022/09/05 03:20:23;;;;;;;9.70;7.50;;;;;;;11.87;84.49;99264.05;104498;1288;138638;-71
2022/09/05 03:23:32;;;;;;;8.40;7.10;;;;;;;11.89;84.47;99258.45;104636;1289;25554;-70
2022/09/05 03:26:35;;;;;;;8.20;7.20;;;;;;;11.91;84.26;99263.40;104838;1283;33594;-69
2022/09/05 03:29:41;;;;;;;9.80;7.20;;;;;;;11.91;84.09;99259.83;105241;1283;22574;-69
2022/09/05 03:32:58;;;;;;;9.50;7.40;;;;;;;11.90;83.88;99266.13;105264;1283;25329;-69
2022/09/05 03:36:15;;;;;;;7.80;7.00;;;;;;;11.88;83.92;99270.52;105159;1281;138557;-70
2022/09/05 03:39:38;;;;;;;7.80;7.00;;;;;;;11.84;83.83;99272.33;105326;1281;23971;-70
2022/09/05 03:43:08;;;;;;;9.70;7.40;;;;;;;11.81;83.86;99276.20;105208;1281;138370;-69
2022/09/05 03:46:00;;;;;;;11.90;8.90;;;;;;;11.79;83.84;99279.00;104745;1287;22772;-69
2022/09/05 03:48:51;;;;;;;10.70;7.90;;;;;;;11.74;83.77;99277.10;104702;1287;138710;-69
2022/09/05 03:51:56;;;;;;;9.50;7.60;;;;;;;11.71;84.10;99279.08;104863;1287;25326;-69
2022/09/05 03:54:57;;;;;;;9.10;7.00;;;;;;;11.68;83.87;99277.57;104689;1287;138462;-69
2022/09/05 03:58:16;;;;;;;10.60;7.50;;;;;;;11.64;83.78;99277.95;104780;1287;22570;-70
2022/09/05 04:01:13;;;;;;;12.70;7.50;;;;;;;11.63;84.24;99281.64;103645;1293;138593;-69
2022/09/05 04:04:02;;;;;;;12.30;8.10;;;;;;;11.59;84.16;99281.71;103757;1293;24119;-70
2022/09/05 04:06:58;;;;;;;11.00;8.20;;;;;;;11.56;84.07;99284.52;103443;1294;138490;-69
2022/09/05 04:09:57;;;;;;;8.60;7.30;;;;;;;11.55;84.13;99290.59;103709;1294;24245;-69
2022/09/05 04:12:48;;;;;;;;;;;;;;;11.52;83.91;99291.94;103679;1294;139592;-69
2022/09/05 04:15:44;;;;;;;9.40;8.00;;;;;;;11.49;84.14;99290.38;103755;1294;22585;-69
2022/09/05 04:18:37;;;;;;;10.10;8.40;;;;;;;11.47;84.66;99295.98;103537;1294;138777;-69
2022/09/05 04:21:33;;;;;;;11.70;8.10;;;;;;;11.48;84.58;99305.67;103641;1295;22544;-69
2022/09/05 04:24:33;;;;;;;11.00;7.40;;;;;;;11.50;84.55;99309.00;104610;1287;139338;-69
2022/09/05 04:27:27;;;;;;;10.70;8.10;;;;;;;11.50;84.49;99307.48;104797;1287;22566;-69
2022/09/05 04:30:27;;;;;;;8.80;7.90;;;;;;;11.49;84.55;99314.17;104704;1287;138723;-69
2022/09/05 04:33:19;;;;;;;11.50;7.80;;;;;;;11.48;84.82;99319.09;104822;1287;24242;-69
2022/09/05 04:36:27;;;;;;;10.90;8.50;;;;;;;11.49;84.90;99324.92;104685;1287;138708;-69
2022/09/05 04:39:17;;;;;;;13.20;8.10;;;;;;;11.50;84.86;99330.98;105312;1281;26481;-69
2022/09/05 04:42:26;;;;;;;11.40;8.40;;;;;;;11.54;84.87;99331.66;105212;1281;139194;-69
2022/09/05 04:45:14;;;;;;;9.70;8.20;;;;;;;11.56;84.63;99332.55;105279;1281;22740;-69
2022/09/05 04:48:00;;;;;;;10.70;8.40;;;;;;;11.57;84.56;99331.91;105218;1281;138586;-69
2022/09/05 04:51:07;;;;;;;8.70;7.60;;;;;;;11.59;84.91;99333.60;105325;1281;24331;-69
2022/09/05 04:54:22;;;;;;;11.40;7.40;;;;;;;11.62;84.61;99341.15;105204;1281;138495;-69
2022/09/05 04:57:07;;;;;;;11.00;8.10;;;;;;;11.66;84.82;99345.17;105285;1281;22674;-69
2022/09/05 05:00:05;;;;;;;16.40;9.00;;;;;;;11.68;84.54;99344.48;105235;1281;138792;-69
2022/09/05 05:03:13;;;;;;;13.60;8.60;;;;;;;11.71;84.54;99351.11;105338;1281;25248;-69
2022/09/05 05:06:04;;;;;;;11.30;7.50;;;;;;;11.74;84.51;99356.78;105208;1281;138650;-69
2022/09/05 05:09:14;;;;;;;9.50;7.50;;;;;;;11.77;84.83;99354.08;105949;1281;30646;-68
2022/09/05 05:12:08;;;;;;;9.40;8.20;;;;;;;11.82;84.96;99353.27;105251;1281;139497;-69
2022/09/05 05:14:59;;;;;;;9.40;7.80;;;;;;;11.86;84.77;99362.61;105383;1281;25103;-69
2022/09/05 05:18:05;;;;;;;10.10;7.80;;;;;;;11.92;84.78;99366.77;105222;1281;138456;-69
2022/09/05 05:21:01;;;;;;;9.20;8.20;;;;;;;11.98;84.92;99368.03;105328;1281;22564;-69
2022/09/05 05:23:46;;;;;;;11.00;8.40;;;;;;;12.03;84.77;99371.79;105257;1281;138552;-69
2022/09/05 05:26:43;;;;;;;11.70;8.80;;;;;;;12.08;84.80;99372.84;105321;1281;22693;-69
2022/09/05 05:29:42;;;;;;;10.60;8.80;;;;;;;12.14;84.71;99371.80;105638;1281;30268;-69
2022/09/05 05:32:33;;;;;;;12.90;8.50;;;;;;;12.20;84.38;99372.05;105639;1280;25496;-69
2022/09/05 05:35:39;;;;;;;10.60;8.50;;;;;;;12.25;84.52;99375.13;105612;1278;23976;-69
2022/09/05 05:38:33;;;;;;;10.60;8.30;;;;;;;12.31;84.49;99374.60;105445;1281;25005;-69
2022/09/05 05:41:35;;;;;;;10.40;8.60;;;;;;;12.39;84.48;99376.21;106073;1280;22707;-69
2022/09/05 05:44:36;;;;;;;12.70;9.10;;;;;;;12.46;84.28;99376.09;105371;1280;24427;-69
2022/09/05 05:47:26;;;;;;;10.60;8.40;;;;;;;12.52;84.34;99377.36;105340;1280;25425;-69
2022/09/05 05:50:48;;;;;;;9.50;8.60;;;;;;;12.61;84.09;99373.96;105462;1280;33508;-69
2022/09/05 05:54:13;;;;;;;11.90;8.90;;;;;;;12.68;84.03;99375.61;104688;1287;25252;-69
2022/09/05 05:57:17;;;;;;;11.40;8.90;;;;;;;12.75;83.96;99382.02;103532;1297;23075;-69
2022/09/05 06:00:19;;;;;;;9.80;8.10;;;;;;;12.83;84.16;99379.67;103696;1297;139430;-69
2022/09/05 06:03:12;;;;;;;9.20;8.00;;;;;;;12.96;83.98;99382.57;103707;1297;23334;-69
2022/09/05 06:06:25;;;;;;;11.20;9.30;;;;;;;13.03;83.18;99388.73;103634;1297;138597;-69
2022/09/05 06:09:31;;;;;;;12.50;8.50;;;;;;;13.09;83.29;99390.86;103619;1297;24642;-69
2022/09/05 06:13:10;;;;;;;12.40;9.10;;;;;;;13.14;82.68;99388.55;103730;1297;138945;-69
2022/09/05 06:16:30;;;;;;;10.30;8.40;;;;;;;13.21;82.29;99388.96;103216;1303;22752;-69
2022/09/05 06:19:32;;;;;;;12.40;8.90;;;;;;;13.26;82.20;99393.24;103119;1303;138549;-69
2022/09/05 06:22:19;;;;;;;11.10;8.70;;;;;;;13.33;82.53;99393.61;103426;1303;25456;-69
2022/09/05 06:25:22;;;;;;;10.20;8.70;;;;;;;13.46;82.23;99390.70;103402;1303;138507;-69
2022/09/05 06:28:24;;;;;;;10.70;8.90;;;;;;;13.56;82.10;99395.39;103381;1303;22599;-69
2022/09/05 06:31:08;;;;;;;12.10;9.20;;;;;;;13.64;81.84;99401.98;103842;1297;138725;-69
2022/09/05 06:34:31;;;;;;;9.50;7.60;;;;;;;13.71;81.84;99404.09;104736;1288;22560;-69
2022/09/05 06:37:40;;;;;;;10.30;8.20;;;;;;;13.79;81.48;99403.27;103825;1294;138630;-70
2022/09/05 06:40:40;;;;;;;8.90;7.00;;;;;;;13.87;81.70;99407.05;103994;1293;25531;-70
2022/09/05 06:43:30;;;;;;;9.90;7.00;;;;;;;13.95;81.49;99411.05;103596;1294;138393;-70
2022/09/05 06:46:35;;;;;;;8.40;7.20;;;;;;;14.03;81.12;99409.98;104241;1294;24272;-69
2022/09/05 06:49:31;;;;;;;14.30;6.90;;;;;;;14.12;80.98;99413.66;103698;1294;138638;-69
2022/09/05 06:52:34;;;;;;;10.10;7.40;;;;;;;14.22;81.11;99416.81;105373;1286;30562;-69
2022/09/05 06:55:36;;;;;;;10.10;7.10;;;;;;;14.33;80.72;99420.36;104837;1287;138588;-69
2022/09/05 06:59:02;;;;;;;9.70;6.40;;;;;;;14.44;80.58;99417.59;104785;1286;22714;-69
2022/09/05 07:02:18;;;;;;;10.80;6.90;;;;;;;14.55;80.08;99419.15;104740;1286;138547;-68
2022/09/05 07:05:32;;;;;;;13.80;7.30;;;;;;;14.65;79.92;99424.29;104553;1292;24286;-69
2022/09/05 07:08:19;;;;;;;12.30;6.50;;;;;;;14.74;79.72;99423.46;104656;1292;22743;-69
2022/09/05 07:11:09;;;;;;;7.90;6.70;;;;;;;14.85;79.43;99423.30;104161;1292;24336;-69
2022/09/05 07:14:07;;;;;;;10.50;6.80;;;;;;;14.91;78.71;99423.89;104498;1289;138278;-69
2022/09/05 07:16:55;;;;;;;10.10;6.80;;;;;;;14.98;78.53;99429.45;104450;1289;25323;-69
2022/09/05 07:19:48;;;;;;;8.40;6.40;;;;;;;15.05;78.56;99422.75;104682;1287;138410;-68
2022/09/05 07:23:11;;;;;;;11.30;7.10;;;;;;;15.12;78.60;99419.84;104671;1287;25318;-69
2022/09/05 07:25:57;;;;;;;9.50;7.00;;;;;;;15.23;78.06;99418.17;104817;1287;138498;-69
2022/09/05 07:28:46;;;;;;;7.70;6.60;;;;;;;15.29;77.51;99420.73;104932;1286;22854;-69
2022/09/05 07:31:34;;;;;;;10.50;6.90;;;;;;;15.36;77.37;99422.39;104505;1287;139136;-68
2022/09/05 07:34:24;;;;;;;9.30;7.30;;;;;;;15.44;77.28;99418.88;105208;1287;25431;-70
2022/09/05 07:37:36;;;;;;;9.20;6.50;;;;;;;15.53;77.10;99418.89;104946;1287;138293;-69
2022/09/05 07:40:23;;;;;;;9.00;6.80;;;;;;;15.64;76.98;99421.99;104960;1287;22582;-68
2022/09/05 07:43:15;;;;;;;9.20;6.20;;;;;;;15.74;76.27;99423.50;105160;1280;151241;-68
2022/09/05 07:45:59;;;;;;;9.50;6.40;;;;;;;15.83;76.24;99422.27;105452;1280;22574;-68
2022/09/05 07:48:53;;;;;;;8.20;6.50;;;;;;;15.93;75.86;99425.30;105844;1279;139333;-68
2022/09/05 07:51:46;;;;;;;7.40;5.40;;;;;;;16.04;75.96;99425.81;106038;1280;22580;-68
2022/09/05 07:54:34;;;;;;;6.40;5.50;;;;;;;16.18;75.96;99425.42;105646;1280;138593;-68
2022/09/05 07:57:22;;;;;;;6.10;5.20;;;;;;;16.31;75.56;99432.98;105366;1280;22650;-68
2022/09/05 08:00:10;;;;;;;5.90;5.20;;;;;;;16.44;74.92;99434.42;105422;1280;139671;-69
2022/09/05 08:03:07;;;;;;;6.80;5.20;;;;;;;16.56;74.55;99431.30;106155;1280;22581;-68
2022/09/05 08:05:54;;;;;;;7.40;5.70;;;;;;;16.68;74.35;99424.70;105830;1281;138352;-68
2022/09/05 08:08:52;;;;;;;7.70;6.10;;;;;;;16.79;73.57;99422.92;105749;1281;23965;-69
2022/09/05 08:11:37;;;;;;;4.90;4.10;;;;;;;16.92;73.36;99421.70;105643;1280;23941;-69
2022/09/05 08:14:44;;;;;;;5.20;4.70;;;;;;;17.04;72.92;99417.98;105596;1280;25521;-69
2022/09/05 08:17:31;;;;;;;6.80;5.40;;;;;;;17.18;71.82;99420.22;105408;1280;25309;-69
2022/09/05 08:20:23;;;;;;;7.90;5.60;;;;;;;17.28;71.65;99415.89;105411;1280;25483;-69
2022/09/05 08:23:17;;;;;;;6.60;5.20;;;;;;;17.39;70.70;99419.42;105391;1281;23988;-69
2022/09/05 08:26:07;;;;;;;5.50;5.00;;;;;;;17.51;70.68;99419.98;105409;1281;138178;-69
2022/09/05 08:29:26;;;;;;;5.60;4.50;;;;;;;17.65;70.54;99418.73;105711;1280;23958;-69
2022/09/05 08:32:14;;;;;;;7.20;4.80;;;;;;;17.82;70.40;99415.30;105837;1280;23937;-69
2022/09/05 08:35:18;;;;;;;5.60;4.30;;;;;;;17.95;69.48;99413.05;105489;1280;22630;-69
2022/09/05 08:38:03;;;;;;;6.70;4.50;;;;;;;18.07;68.85;99410.16;105598;1280;24276;-69
2022/09/05 08:40:54;;;;;;;10.50;4.30;;;;;;;18.18;68.76;99406.34;105989;1280;22606;-70
2022/09/05 08:43:57;;;;;;;5.70;4.30;;;;;;;18.34;68.47;99407.77;105493;1280;138451;-69
2022/09/05 08:46:52;;;;;;;7.20;4.40;;;;;;;18.46;67.48;99399.39;105387;1283;22847;-69
2022/09/05 08:49:54;;;;;;;7.00;4.40;;;;;;;18.57;66.58;99398.79;105307;1280;138211;-69
2022/09/05 08:52:57;;;;;;;6.00;4.40;;;;;;;18.68;66.42;99397.75;105408;1280;22703;-69
2022/09/05 08:56:05;;;;;;;7.30;4.50;;;;;;;18.79;65.85;99392.47;105323;1280;138198;-69
2022/09/05 08:59:14;;;;;;;8.40;4.60;;;;;;;18.90;65.22;99389.45;105408;1280;22630;-68
2022/09/05 09:02:46;;;;;;;5.90;4.00;;;;;;;19.03;64.98;99386.52;105324;1280;137513;-68
2022/09/05 09:06:13;;;;;;;5.10;4.40;;;;;;;19.21;64.43;99380.85;105304;1286;32359;-69
2022/09/05 09:09:03;;;;;;;5.50;3.90;;;;;;;19.36;64.33;99386.66;105387;1286;25242;-69
2022/09/05 09:11:52;;;;;;;9.60;4.80;;;;;;;19.51;63.37;99385.42;105354;1286;138105;-70
2022/09/05 09:15:24;;;;;;;7.60;4.60;;;;;;;19.62;62.76;99379.13;105658;1286;25482;-69
2022/09/05 09:18:17;;;;;;;5.10;4.50;;;;;;;19.83;62.47;99379.63;104494;1293;138224;-69
2022/09/05 09:21:22;;;;;;;8.70;4.60;;;;;;;19.98;61.61;99385.41;104312;1293;22578;-70
2022/09/05 09:24:37;;;;;;;10.20;4.50;;;;;;;20.07;61.07;99380.77;104358;1292;137812;-69
2022/09/05 09:27:47;;;;;;;6.10;4.60;;;;;;;20.22;60.45;99378.14;104410;1292;25256;-69
2022/09/05 09:30:34;;;;;;;6.60;4.00;;;;;;;20.40;59.73;99372.86;104486;1292;137672;-69
2022/09/05 09:33:25;;;;;;;6.40;4.40;;;;;;;20.57;58.93;99376.08;104488;1292;22780;-69
2022/09/05 09:36:36;;;;;;;8.10;4.00;;;;;;;20.72;58.31;99362.31;104501;1288;137676;-69
2022/09/05 09:39:34;;;;;;;4.90;3.60;;;;;;;20.87;57.52;99367.33;105367;1287;24439;-68
2022/09/05 09:42:35;;;;;;;5.60;3.60;;;;;;;20.98;56.11;99357.14;105394;1288;138217;-68
2022/09/05 09:45:25;;;;;;;7.00;4.00;;;;;;;21.16;56.29;99360.45;105129;1287;22859;-68
2022/09/05 09:48:10;;;;;;;8.60;4.00;;;;;;;21.26;55.07;99355.03;104670;1287;137901;-68
2022/09/05 09:51:10;;;;;;;7.90;4.00;;;;;;;21.31;54.90;99350.55;105318;1286;26711;-68
2022/09/05 09:54:10;;;;;;;4.70;3.80;;;;;;;21.51;55.65;99354.15;105391;1282;138306;-68
2022/09/05 09:57:22;;;;;;;5.10;3.50;;;;;;;21.74;55.79;99350.84;105798;1280;34887;-68
2022/09/05 10:00:21;;;;;;;3.60;3.20;;;;;;;21.98;54.53;99349.73;105326;1280;138481;-67
2022/09/05 10:03:40;;;;;;;6.90;4.10;;;;;;;22.09;52.38;99346.15;105577;1280;24240;-68
2022/09/05 10:06:43;;;;;;;7.70;2.80;;;;;;;22.16;51.43;99342.48;105419;1280;137475;-67
2022/09/05 10:09:50;;;;;;;5.10;3.30;;;;;;;22.23;50.84;99342.72;105358;1281;24238;-67
2022/09/05 10:13:04;;;;;;;4.70;3.20;;;;;;;22.27;50.71;99344.45;105411;1280;137882;-67
2022/09/05 10:16:15;;;;;;;3.50;2.90;;;;;;;22.34;50.42;99344.46;105581;1280;25363;-67
2022/09/05 10:19:44;;;;;;;4.80;3.00;;;;;;;22.45;50.07;99342.52;105547;1280;137444;-67
2022/09/05 10:22:49;;;;;;;3.40;3.10;;;;;;;22.64;50.44;99337.48;104961;1286;22639;-67
2022/09/05 10:25:45;;;;;;;3.70;3.00;;;;;;;22.89;50.46;99336.05;105115;1286;137479;-67
2022/09/05 10:29:06;;;;;;;5.40;3.20;;;;;;;23.14;49.74;99333.79;104943;1286;25326;-67
2022/09/05 10:32:04;;;;;;;7.50;3.70;;;;;;;23.37;48.93;99331.79;104667;1287;137852;-67
2022/09/05 10:35:04;;;;;;;8.30;3.80;;;;;;;23.48;48.02;99335.62;104986;1285;22628;-67
2022/09/05 10:37:53;;;;;;;5.10;3.50;;;;;;;23.55;47.93;99333.37;105096;1286;137679;-67
2022/09/05 10:40:43;;;;;;;6.20;3.50;;;;;;;23.63;47.74;99328.13;104939;1286;24224;-67
2022/09/05 10:43:29;;;;;;;5.20;3.20;;;;;;;23.80;47.84;99325.23;104847;1286;137772;-67
2022/09/05 10:46:32;;;;;;;4.60;3.20;;;;;;;23.92;46.96;99328.66;104883;1286;22808;-67
2022/09/05 10:49:23;;;;;;;7.20;2.90;;;;;;;23.93;45.99;99323.98;105039;1286;138125;-67
2022/09/05 10:52:35;;;;;;;4.70;3.00;;;;;;;23.95;45.24;99320.95;104894;1286;25434;-67
2022/09/05 10:55:41;;;;;;;4.40;3.10;;;;;;;23.96;46.03;99328.69;104933;1286;138117;-67
2022/09/05 10:58:31;;;;;;;5.90;3.10;;;;;;;24.08;46.62;99322.85;105302;1284;29349;-68
2022/09/05 11:01:33;;;;;;;5.10;3.40;;;;;;;24.19;46.56;99325.03;105345;1280;137564;-68
2022/09/05 11:04:27;;;;;;;5.10;3.20;;;;;;;24.20;45.45;99322.12;105663;1280;24437;-68
2022/09/05 11:07:14;;;;;;;3.90;3.00;;;;;;;23.89;44.73;99322.09;106024;1280;137499;-68
2022/09/05 11:10:22;;;;;;;3.10;2.70;;;;;;;23.45;45.18;99324.63;105517;1281;22676;-67
2022/09/05 11:13:41;;;;;;;3.60;2.70;;;;;;;23.15;45.89;99317.15;105406;1280;137479;-67
2022/09/05 11:16:30;;;;;;;5.90;3.30;;;;;;;22.80;46.67;99320.49;105568;1281;22759;-67
2022/09/05 11:19:32;;;;;;;5.30;2.60;;;;;;;22.83;47.23;99322.89;105568;1280;137468;-67
2022/09/05 11:22:20;;;;;;;4.10;2.60;;;;;;;22.73;46.48;99314.55;106056;1280;24286;-68
2022/09/05 11:25:29;;;;;;;6.20;2.60;;;;;;;22.80;46.24;99317.38;105324;1280;138039;-68
2022/09/05 11:28:41;;;;;;;4.60;2.50;;;;;;;23.00;46.43;99309.23;106391;1280;27044;-70
2022/09/05 11:31:44;;;;;;;3.00;2.00;;;;;;;23.20;45.87;99301.77;105589;1281;137699;-67
2022/09/05 11:34:37;;;;;;;3.50;2.60;;;;;;;23.37;44.23;99302.45;106358;1280;23273;-69
2022/09/05 11:37:51;;;;;;;5.10;2.50;;;;;;;23.46;44.08;99299.91;106243;1280;137488;-69
2022/09/05 11:40:56;;;;;;;3.30;2.40;;;;;;;23.63;44.90;99294.38;105674;1280;22569;-67
2022/09/05 11:44:18;;;;;;;2.60;2.40;;;;;;;23.81;43.91;99288.05;106076;1280;137790;-67
2022/09/05 11:47:27;;;;;;;3.40;2.50;;;;;;;23.93;44.12;99288.36;106333;1281;25391;-68
2022/09/05 11:50:53;;;;;;;4.10;2.40;;;;;;;23.99;44.02;99288.02;106106;1280;32710;-68
2022/09/05 11:54:00;;;;;;;4.20;2.60;;;;;;;24.07;43.26;99285.45;104937;1287;138179;-68
2022/09/05 11:57:20;;;;;;;5.20;2.90;;;;;;;24.16;42.72;99282.38;104721;1288;22570;-67
2022/09/05 12:00:10;;;;;;;2.90;2.20;;;;;;;24.24;42.03;99283.71;104548;1289;138140;-67
2022/09/05 12:03:51;;;;;;;4.80;2.30;;;;;;;24.34;42.26;99282.31;104772;1287;24219;-67
2022/09/05 12:06:57;;;;;;;2.50;2.30;;;;;;;24.46;41.43;99278.02;103738;1293;138099;-67
2022/09/05 12:10:02;;;;;;;3.20;2.60;;;;;;;24.61;41.95;99273.19;104194;1293;22688;-67
2022/09/05 12:13:06;;;;;;;5.80;2.50;;;;;;;24.73;41.64;99270.21;103649;1294;138020;-67
2022/09/05 12:15:51;;;;;;;3.50;2.70;;;;;;;24.87;41.43;99271.00;103839;1294;24472;-67
2022/09/05 12:19:01;;;;;;;3.90;2.40;;;;;;;24.90;40.90;99269.80;103813;1295;138138;-67
2022/09/05 12:22:12;;;;;;;2.80;2.50;;;;;;;24.90;40.45;99269.75;104128;1294;24271;-67
2022/09/05 12:25:38;;;;;;;4.20;2.60;;;;;;;25.03;40.67;99266.71;103682;1294;137871;-67
2022/09/05 12:28:32;;;;;;;5.10;2.60;;;;;;;25.21;40.18;99262.09;103489;1298;22593;-67
2022/09/05 12:31:49;;;;;;;5.50;2.40;;;;;;;25.33;39.84;99262.50;103589;1294;137961;-67
2022/09/05 12:34:54;;;;;;;5.10;2.30;;;;;;;25.49;39.01;99265.59;103738;1294;25420;-67
2022/09/05 12:37:56;;;;;;;2.60;2.20;;;;;;;25.61;38.78;99266.56;103899;1291;137499;-67
2022/09/05 12:41:12;;;;;;;3.20;2.40;;;;;;;25.66;37.98;99259.52;103178;1288;1899798;-67
2022/09/05 12:44:00;;;;;;;4.50;2.30;;;;;;;25.66;37.86;99253.08;104789;1288;137738;-67
2022/09/05 12:46:56;;;;;;;5.40;2.40;;;;;;;25.68;38.27;99257.29;104454;1288;22745;-67
2022/09/05 12:49:59;;;;;;;10.60;3.10;;;;;;;25.67;37.87;99253.84;104431;1288;137670;-67
2022/09/05 12:52:48;;;;;;;5.80;2.50;;;;;;;25.64;37.48;99253.90;104649;1287;22580;-69
2022/09/05 12:55:35;;;;;;;;;;;;;;;25.54;37.56;99245.15;104579;1289;137495;-68
2022/09/05 12:58:22;;;;;;;7.20;2.70;;;;;;;25.50;38.01;99241.40;104645;1289;22568;-68
2022/09/05 13:01:14;;;;;;;4.50;2.50;;;;;;;25.55;38.12;99243.55;104574;1289;137496;-67
2022/09/05 13:04:05;;;;;;;3.60;2.30;;;;;;;25.58;37.98;99245.20;104787;1284;25426;-67
2022/09/05 13:07:00;;;;;;;4.00;2.70;;;;;;;25.64;38.46;99245.79;105674;1280;137967;-68
2022/09/05 13:09:55;;;;;;;5.80;2.50;;;;;;;25.74;38.84;99239.49;105366;1281;25494;-68
2022/09/05 13:13:01;;;;;;;2.40;2.20;;;;;;;25.81;38.69;99239.64;105510;1280;137713;-68
2022/09/05 13:15:51;;;;;;;5.80;3.00;;;;;;;25.88;38.52;99234.98;105563;1280;24064;-68
2022/09/05 13:18:41;;;;;;;4.00;2.60;;;;;;;25.93;37.87;99232.45;105502;1280;137760;-68
2022/09/05 13:21:28;;;;;;;3.80;2.30;;;;;;;25.90;37.61;99233.40;105357;1280;25527;-69
2022/09/05 13:24:20;;;;;;;2.40;2.20;;;;;;;25.86;37.33;99232.78;105357;1280;137865;-69
2022/09/05 13:27:06;;;;;;;2.30;2.10;;;;;;;25.83;36.60;99230.48;105427;1280;22571;-68
2022/09/05 13:30:09;;;;;;;2.80;2.30;;;;;;;25.76;36.30;99228.27;105309;1280;137834;-69
2022/09/05 13:32:58;;;;;;;4.60;2.30;;;;;;;25.66;36.71;99228.27;105359;1280;33576;-68
2022/09/05 13:36:04;;;;;;;5.40;2.60;;;;;;;25.67;37.70;99229.12;105392;1280;137810;-67
2022/09/05 13:39:08;;;;;;;4.70;2.70;;;;;;;25.73;37.90;99228.30;105312;1282;25412;-67
2022/09/05 13:41:58;;;;;;;4.40;2.70;;;;;;;25.78;37.20;99221.65;105251;1283;137854;-68
2022/09/05 13:44:46;;;;;;;4.30;2.40;;;;;;;25.80;36.93;99224.81;105392;1281;24206;-67
2022/09/05 13:48:03;;;;;;;2.60;2.40;;;;;;;25.84;37.07;99223.59;105395;1281;24378;-68
2022/09/05 13:50:53;;;;;;;2.10;2.00;;;;;;;25.94;36.78;99220.91;105372;1281;24093;-67
2022/09/05 13:53:50;;;;;;;7.80;3.10;;;;;;;26.04;36.78;99215.30;105212;1281;137590;-68
2022/09/05 13:57:03;;;;;;;4.70;2.40;;;;;;;26.16;36.02;99215.73;105392;1281;24070;-68